Time;durP1;ratioP1;P1;durP2;ratioP2;P2;SDS_P1;SDS_P2;PMS_P1;PMS_P2;Temp;Humidity;BMP_temperature;BMP_pressure;BME280_temperature;BME280_humidity;BME280_pressure;Samples;Min_cycle;Max_cycle;Signal;HPM_P1;HPM_P2
2022/05/30 00:00:24;;;;;;;;;;;12.10;93.60;;;;;;5074090;28;19996;-76
2022/05/30 00:02:50;;;;;;;;;;;11.90;94.10;;;;;;5074018;28;20002;-78
2022/05/30 00:05:16;;;;;;;;;;;11.90;94.00;;;;;;5074146;28;19915;-76
2022/05/30 00:07:42;;;;;;;;;;;11.80;94.30;;;;;;5073939;28;20403;-76
2022/05/30 00:10:08;;;;;;;;;;;11.80;94.40;;;;;;5073964;28;19965;-76
2022/05/30 00:12:34;;;;;;;;;;;11.80;94.70;;;;;;5073717;28;19913;-75
2022/05/30 00:15:00;;;;;;;;;;;11.80;95.20;;;;;;5074217;28;19915;-77
2022/05/30 00:17:25;;;;;;;;;;;11.70;95.50;;;;;;5073940;28;19909;-76
2022/05/30 00:19:51;;;;;;;;;;;11.80;95.70;;;;;;5055839;28;19940;-74
2022/05/30 00:22:17;;;;;;;;;;;11.80;95.90;;;;;;5073765;28;20031;-77
2022/05/30 00:24:43;;;;;;;;;;;11.70;96.50;;;;;;5073733;28;19908;-77
2022/05/30 00:27:10;;;;;;;;;;;11.50;97.40;;;;;;5055733;28;19919;-76
2022/05/30 00:29:36;;;;;;;;;;;11.60;97.00;;;;;;5073817;28;19908;-78
2022/05/30 00:32:01;;;;;;;;;;;11.60;97.00;;;;;;5073628;28;19912;-75
2022/05/30 00:34:27;;;;;;;;;;;11.60;97.10;;;;;;5073666;28;19912;-75
2022/05/30 00:36:53;;;;;;;;;;;11.60;97.50;;;;;;5073562;28;20340;-75
2022/05/30 00:39:18;;;;;;;;;;;11.50;98.00;;;;;;5073714;28;19909;-75
2022/05/30 00:41:44;;;;;;;;;;;11.50;98.40;;;;;;5073777;28;19962;-78
2022/05/30 00:44:10;;;;;;;;;;;11.40;98.60;;;;;;5073609;28;19915;-76
2022/05/30 00:46:35;;;;;;;;;;;11.50;98.50;;;;;;5074650;28;19909;-75
2022/05/30 00:49:02;;;;;;;;;;;11.30;98.80;;;;;;5078124;28;19961;-75
2022/05/30 00:51:31;;;;;;;;;;;11.10;99.40;;;;;;5077788;28;19908;-76
2022/05/30 00:53:57;;;;;;;;;;;11.30;98.90;;;;;;5077609;28;19908;-76
2022/05/30 00:56:25;;;;;;;;;;;11.20;99.10;;;;;;5077639;28;19915;-74
2022/05/30 00:58:51;;;;;;;;;;;11.30;98.90;;;;;;5077533;28;19994;-75
2022/05/30 01:01:17;;;;;;;;;;;11.30;99.00;;;;;;5077474;28;19974;-77
2022/05/30 01:06:32;;;;;;;;;;;11.00;99.90;;;;;;5077509;28;19916;-75
2022/05/30 01:09:02;;;;;;;;;;;10.90;99.90;;;;;;5077089;28;19908;-75
2022/05/30 01:11:45;;;;;;;;;;;10.80;99.90;;;;;;5077406;28;19922;-76
2022/05/30 01:14:10;;;;;;;;;;;10.80;99.90;;;;;;5077549;28;19908;-77
2022/05/30 01:16:36;;;;;;;;;;;10.90;99.90;;;;;;5076803;28;19970;-77
2022/05/30 01:19:02;;;;;;;;;;;10.90;99.90;;;;;;5077272;28;19916;-77
2022/05/30 01:21:31;;;;;;;;;;;10.90;99.90;;;;;;5077057;28;20446;-76
2022/05/30 01:23:58;;;;;;;;;;;10.90;99.90;;;;;;5077045;28;19909;-76
2022/05/30 01:26:42;;;;;;;;;;;10.80;99.90;;;;;;5059073;28;19915;-74
2022/05/30 01:29:08;;;;;;;;;;;10.90;99.90;;;;;;5058976;28;20329;-77
2022/05/30 01:31:33;;;;;;;;;;;10.80;99.90;;;;;;5058877;28;19962;-76
2022/05/30 01:33:59;;;;;;;;;;;10.70;99.90;;;;;;5077184;28;20380;-75
2022/05/30 01:36:26;;;;;;;;;;;10.80;99.90;;;;;;5058668;28;19921;-76
2022/05/30 01:38:51;;;;;;;;;;;10.70;99.90;;;;;;5076768;28;19908;-76
2022/05/30 01:41:17;;;;;;;;;;;10.70;99.90;;;;;;5076775;28;19961;-76
2022/05/30 01:43:44;;;;;;;;;;;10.90;99.90;;;;;;5076791;28;19908;-76
2022/05/30 01:46:12;;;;;;;;;;;10.80;99.90;;;;;;5076692;28;20293;-77
2022/05/30 01:48:38;;;;;;;;;;;10.90;99.90;;;;;;5076450;28;19912;-75
2022/05/30 01:51:03;;;;;;;;;;;10.60;99.90;;;;;;5077087;28;19915;-78
2022/05/30 01:53:29;;;;;;;;;;;10.70;99.90;;;;;;5076398;28;19939;-76
2022/05/30 01:55:54;;;;;;;;;;;10.60;99.90;;;;;;5076425;28;20403;-74
2022/05/30 01:58:20;;;;;;;;;;;10.80;99.90;;;;;;5075677;28;19998;-76
2022/05/30 02:00:46;;;;;;;;;;;10.70;99.90;;;;;;5076473;28;19915;-75
2022/05/30 02:03:12;;;;;;;;;;;10.70;99.90;;;;;;5076476;28;19908;-77
2022/05/30 02:05:37;;;;;;;;;;;10.60;99.90;;;;;;5076325;28;20311;-76
2022/05/30 02:08:03;;;;;;;;;;;10.50;99.90;;;;;;5076459;28;20004;-74
2022/05/30 02:10:29;;;;;;;;;;;10.40;99.90;;;;;;5076525;28;20486;-76
2022/05/30 02:12:55;;;;;;;;;;;10.40;99.90;;;;;;5076021;28;19913;-77
2022/05/30 02:15:21;;;;;;;;;;;10.40;99.90;;;;;;5076126;28;19958;-76
2022/05/30 02:17:46;;;;;;;;;;;10.50;99.90;;;;;;5057854;28;19915;-77
2022/05/30 02:20:12;;;;;;;;;;;10.50;99.90;;;;;;5076164;28;19909;-76
2022/05/30 02:22:38;;;;;;;;;;;10.50;99.90;;;;;;5075966;28;19909;-77
2022/05/30 02:25:04;;;;;;;;;;;10.40;99.90;;;;;;5075924;28;19908;-75
2022/05/30 02:27:30;;;;;;;;;;;10.30;99.90;;;;;;5075828;28;19970;-75
2022/05/30 02:29:55;;;;;;;;;;;10.20;99.90;;;;;;5075839;28;19915;-76
2022/05/30 02:32:21;;;;;;;;;;;10.30;99.90;;;;;;5075821;28;20322;-76
2022/05/30 02:37:31;;;;;;;;;;;9.50;99.90;;;;;;5075502;28;20404;-76
2022/05/30 02:39:57;;;;;;;;;;;9.40;99.90;;;;;;5075632;28;20389;-76
2022/05/30 02:42:23;;;;;;;;;;;9.30;99.90;;;;;;5075578;28;19915;-76
2022/05/30 02:44:49;;;;;;;;;;;9.60;99.90;;;;;;5075548;28;19913;-76
2022/05/30 02:47:17;;;;;;;;;;;9.70;99.90;;;;;;5075513;28;19909;-76
2022/05/30 02:49:43;;;;;;;;;;;9.80;99.90;;;;;;5075422;28;19940;-74
2022/05/30 02:52:09;;;;;;;;;;;9.90;99.90;;;;;;5075491;28;19963;-74
2022/05/30 02:54:34;;;;;;;;;;;10.00;99.90;;;;;;5075479;28;19916;-76
2022/05/30 02:57:00;;;;;;;;;;;10.00;99.90;;;;;;5075398;28;19912;-76
2022/05/30 02:59:26;;;;;;;;;;;9.80;99.90;;;;;;5075267;28;19912;-74
2022/05/30 03:01:52;;;;;;;;;;;9.80;99.90;;;;;;5057247;28;19908;-76
2022/05/30 03:04:19;;;;;;;;;;;9.80;99.90;;;;;;5075144;28;19920;-74
2022/05/30 03:06:44;;;;;;;;;;;9.70;99.90;;;;;;5075105;28;19909;-74
2022/05/30 03:09:10;;;;;;;;;;;9.20;99.90;;;;;;5075162;28;19998;-77
2022/05/30 03:11:36;;;;;;;;;;;8.90;99.90;;;;;;5074925;28;19917;-76
2022/05/30 03:14:02;;;;;;;;;;;8.70;99.90;;;;;;5074976;28;19916;-75
2022/05/30 03:16:27;;;;;;;;;;;8.60;99.90;;;;;;5075200;28;20276;-75
2022/05/30 03:18:54;;;;;;;;;;;9.00;99.90;;;;;;5056881;28;19998;-74
2022/05/30 03:21:19;;;;;;;;;;;9.10;99.90;;;;;;5056842;28;20016;-75
2022/05/30 03:23:45;;;;;;;;;;;8.90;99.90;;;;;;5074746;28;19978;-76
2022/05/30 03:26:11;;;;;;;;;;;9.10;99.90;;;;;;5074721;28;19909;-76
2022/05/30 03:28:38;;;;;;;;;;;9.40;99.90;;;;;;5074673;28;19992;-76
2022/05/30 03:31:04;;;;;;;;;;;9.60;99.90;;;;;;5074770;28;19909;-77
2022/05/30 03:33:30;;;;;;;;;;;9.70;99.90;;;;;;5074593;28;19923;-76
2022/05/30 03:35:55;;;;;;;;;;;9.70;99.90;;;;;;5074350;28;19908;-75
2022/05/30 03:38:21;;;;;;;;;;;9.80;99.90;;;;;;5056315;28;20335;-75
2022/05/30 03:40:47;;;;;;;;;;;9.80;99.90;;;;;;5074427;28;19908;-74
2022/05/30 03:43:13;;;;;;;;;;;9.70;99.90;;;;;;5073149;28;19908;-73
2022/05/30 03:45:39;;;;;;;;;;;9.60;99.90;;;;;;5074326;28;19912;-77
2022/05/30 03:48:06;;;;;;;;;;;9.70;99.90;;;;;;5074518;28;19996;-76
2022/05/30 03:50:32;;;;;;;;;;;9.50;99.90;;;;;;5074533;28;20365;-76
2022/05/30 03:53:05;;;;;;;;;;;9.50;99.90;;;;;;5074165;28;20015;-75
2022/05/30 03:55:35;;;;;;;;;;;9.40;99.90;;;;;;5074748;28;19914;-75
2022/05/30 03:58:01;;;;;;;;;;;9.40;99.90;;;;;;5056217;28;19912;-76
2022/05/30 04:00:27;;;;;;;;;;;9.30;99.90;;;;;;5074080;28;19908;-75
2022/05/30 04:02:52;;;;;;;;;;;9.30;99.90;;;;;;5074356;28;19909;-77
2022/05/30 04:05:18;;;;;;;;;;;9.30;99.90;;;;;;5074020;28;19908;-76
2022/05/30 04:07:44;;;;;;;;;;;9.20;99.90;;;;;;5074034;28;20399;-78
2022/05/30 04:10:10;;;;;;;;;;;9.10;99.90;;;;;;5073978;28;19909;-76
2022/05/30 04:12:36;;;;;;;;;;;9.10;99.90;;;;;;5073962;28;19944;-77
2022/05/30 04:15:03;;;;;;;;;;;9.10;99.90;;;;;;5074192;28;19915;-76
2022/05/30 04:17:31;;;;;;;;;;;9.00;99.90;;;;;;5055857;28;20395;-76
2022/05/30 04:19:57;;;;;;;;;;;9.00;99.90;;;;;;5055852;28;19931;-77
2022/05/30 04:22:22;;;;;;;;;;;9.20;99.90;;;;;;5073356;28;20300;-76
2022/05/30 04:24:48;;;;;;;;;;;9.20;99.90;;;;;;5074194;28;19995;-77
2022/05/30 04:27:13;;;;;;;;;;;9.40;99.90;;;;;;5073901;28;20383;-77
2022/05/30 04:29:39;;;;;;;;;;;9.50;99.90;;;;;;5073732;28;19916;-76
2022/05/30 04:32:05;;;;;;;;;;;9.50;99.90;;;;;;5073564;28;20012;-77
2022/05/30 04:34:31;;;;;;;;;;;9.50;99.90;;;;;;5073688;28;19908;-75
2022/05/30 04:36:57;;;;;;;;;;;9.20;99.90;;;;;;5073431;28;20446;-78
2022/05/30 04:39:22;;;;;;;;;;;9.30;99.90;;;;;;5073640;28;19909;-77
2022/05/30 04:41:48;;;;;;;;;;;9.40;99.90;;;;;;5073609;28;19909;-76
2022/05/30 04:44:14;;;;;;;;;;;9.50;99.90;;;;;;5073576;28;20369;-74
2022/05/30 04:46:39;;;;;;;;;;;9.50;99.90;;;;;;5055491;28;19954;-74
2022/05/30 04:49:05;;;;;;;;;;;9.70;99.90;;;;;;5073516;28;19909;-77
2022/05/30 04:51:30;;;;;;;;;;;9.70;99.90;;;;;;5073539;28;20502;-76
2022/05/30 04:53:56;;;;;;;;;;;9.80;99.90;;;;;;5073744;28;19991;-77
2022/05/30 04:56:22;;;;;;;;;;;9.80;99.90;;;;;;5055709;28;19909;-76
2022/05/30 04:58:48;;;;;;;;;;;9.80;99.90;;;;;;5055444;28;19913;-75
2022/05/30 05:01:13;;;;;;;;;;;9.70;99.90;;;;;;5073381;28;19916;-76
2022/05/30 05:03:40;;;;;;;;;;;9.90;99.90;;;;;;5055363;28;19913;-75
2022/05/30 05:06:10;;;;;;;;;;;9.90;99.90;;;;;;5073343;28;20376;-76
2022/05/30 05:08:41;;;;;;;;;;;9.80;99.90;;;;;;5073466;28;19909;-77
2022/05/30 05:11:13;;;;;;;;;;;9.80;99.90;;;;;;5055079;28;19909;-75
2022/05/30 05:13:39;;;;;;;;;;;9.90;99.90;;;;;;5073379;28;19974;-75
2022/05/30 05:16:04;;;;;;;;;;;10.00;99.90;;;;;;5055289;28;19909;-76
2022/05/30 05:18:30;;;;;;;;;;;9.90;99.90;;;;;;5073227;28;20261;-75
2022/05/30 05:20:55;;;;;;;;;;;10.20;99.90;;;;;;5073219;28;19999;-78
2022/05/30 05:23:21;;;;;;;;;;;10.30;99.90;;;;;;5073573;28;19974;-77
2022/05/30 05:25:47;;;;;;;;;;;10.30;99.90;;;;;;5055176;28;19909;-76
2022/05/30 05:28:12;;;;;;;;;;;10.40;99.90;;;;;;5055180;28;19909;-75
2022/05/30 05:30:39;;;;;;;;;;;10.50;99.90;;;;;;5073126;28;19961;-77
2022/05/30 05:33:05;;;;;;;;;;;10.60;99.90;;;;;;5073254;28;19958;-76
2022/05/30 05:35:30;;;;;;;;;;;10.70;99.90;;;;;;5076992;28;20326;-74
2022/05/30 05:37:56;;;;;;;;;;;10.80;99.90;;;;;;5076396;28;19924;-76
2022/05/30 05:40:22;;;;;;;;;;;11.00;99.90;;;;;;5076786;28;19908;-75
2022/05/30 05:42:48;;;;;;;;;;;10.90;99.90;;;;;;5076704;28;20395;-75
2022/05/30 05:45:13;;;;;;;;;;;11.10;99.90;;;;;;5076637;28;20365;-77
2022/05/30 05:47:39;;;;;;;;;;;11.20;99.90;;;;;;5076549;28;19913;-76
2022/05/30 05:50:05;;;;;;;;;;;11.20;99.90;;;;;;5058655;28;19912;-75
2022/05/30 05:52:32;;;;;;;;;;;11.30;99.90;;;;;;5076641;28;19959;-75
2022/05/30 05:54:58;;;;;;;;;;;11.40;99.90;;;;;;5076427;28;19912;-75
2022/05/30 05:57:27;;;;;;;;;;;11.50;99.90;;;;;;5058429;28;19912;-75
2022/05/30 05:59:53;;;;;;;;;;;11.60;99.90;;;;;;5076275;28;20387;-75
2022/05/30 06:02:18;;;;;;;;;;;11.80;99.90;;;;;;5058286;28;20002;-76
2022/05/30 06:04:44;;;;;;;;;;;11.90;99.90;;;;;;5076236;28;19909;-75
2022/05/30 06:07:10;;;;;;;;;;;11.90;99.90;;;;;;5076101;28;19995;-75
2022/05/30 06:09:37;;;;;;;;;;;11.90;99.90;;;;;;5075961;28;20341;-78
2022/05/30 06:12:02;;;;;;;;;;;12.00;99.90;;;;;;5076094;28;20003;-76
2022/05/30 06:14:28;;;;;;;;;;;12.20;99.90;;;;;;5076168;28;19936;-76
2022/05/30 06:16:53;;;;;;;;;;;12.20;99.90;;;;;;5076093;28;19952;-78
2022/05/30 06:19:20;;;;;;;;;;;12.30;99.90;;;;;;5076041;28;19923;-75
2022/05/30 06:21:45;;;;;;;;;;;12.50;99.90;;;;;;5057892;28;20011;-76
2022/05/30 06:24:12;;;;;;;;;;;12.70;99.90;;;;;;5075849;28;19989;-75
2022/05/30 06:26:38;;;;;;;;;;;12.80;99.90;;;;;;5076060;28;19916;-75
2022/05/30 06:29:04;;;;;;;;;;;13.00;99.90;;;;;;5075986;28;19909;-74
2022/05/30 06:31:30;;;;;;;;;;;13.20;99.90;;;;;;5075885;28;19948;-77
2022/05/30 06:33:58;;;;;;;;;;;13.10;99.90;;;;;;5075805;28;20368;-76
2022/05/30 06:36:24;;;;;;;;;;;13.10;99.90;;;;;;5075686;28;19921;-76
2022/05/30 06:38:50;;;;;;;;;;;13.20;99.90;;;;;;5075892;28;19912;-77
2022/05/30 06:41:17;;;;;;;;;;;13.40;99.90;;;;;;5075906;28;19908;-77
2022/05/30 06:43:43;;;;;;;;;;;13.50;99.90;;;;;;5057566;28;19908;-78
2022/05/30 06:46:10;;;;;;;;;;;13.50;99.90;;;;;;5075312;28;19958;-75
2022/05/30 06:48:36;;;;;;;;;;;13.90;99.90;;;;;;5075713;28;19931;-78
2022/05/30 06:51:06;;;;;;;;;;;14.00;99.90;;;;;;5075725;28;20330;-77
2022/05/30 06:53:32;;;;;;;;;;;13.80;99.90;;;;;;5075284;28;19920;-75
2022/05/30 06:55:58;;;;;;;;;;;14.00;99.90;;;;;;5075379;28;19916;-78
2022/05/30 06:58:24;;;;;;;;;;;14.10;99.90;;;;;;5075290;28;20277;-77
2022/05/30 07:00:49;;;;;;;;;;;14.10;99.90;;;;;;5075462;28;19920;-75
2022/05/30 07:03:17;;;;;;;;;;;14.10;99.90;;;;;;5057232;28;19909;-74
2022/05/30 07:05:43;;;;;;;;;;;14.10;99.90;;;;;;5075192;28;19908;-77
2022/05/30 07:08:09;;;;;;;;;;;14.20;99.90;;;;;;5075164;28;20456;-76
2022/05/30 07:10:37;;;;;;;;;;;14.30;99.90;;;;;;5075129;28;20331;-76
2022/05/30 07:13:04;;;;;;;;;;;14.30;99.90;;;;;;5056833;28;19966;-78
2022/05/30 07:15:31;;;;;;;;;;;14.40;99.90;;;;;;5074900;28;19918;-78
2022/05/30 07:17:57;;;;;;;;;;;14.60;99.90;;;;;;5075081;28;19908;-75
2022/05/30 07:20:23;;;;;;;;;;;14.50;99.90;;;;;;5075031;28;19996;-75
2022/05/30 07:22:49;;;;;;;;;;;14.80;99.90;;;;;;5074807;28;20262;-75
2022/05/30 07:25:14;;;;;;;;;;;14.90;99.90;;;;;;5074754;28;19961;-76
2022/05/30 07:27:40;;;;;;;;;;;15.10;99.90;;;;;;5074718;28;19909;-75
2022/05/30 07:30:06;;;;;;;;;;;15.00;99.90;;;;;;5074671;28;19915;-77
2022/05/30 07:32:34;;;;;;;;;;;15.10;99.90;;;;;;5074446;28;20394;-76
2022/05/30 07:35:01;;;;;;;;;;;16.50;96.20;;;;;;5074997;28;20291;-76
2022/05/30 07:37:26;;;;;;;;;;;19.70;89.90;;;;;;5074398;28;19927;-77
2022/05/30 07:39:52;;;;;;;;;;;22.10;74.10;;;;;;5074813;28;19908;-76
2022/05/30 07:42:17;;;;;;;;;;;23.80;69.00;;;;;;5074502;28;19991;-76
2022/05/30 07:44:43;;;;;;;;;;;24.80;63.30;;;;;;5056447;28;19909;-78
2022/05/30 07:47:09;;;;;;;;;;;26.10;61.80;;;;;;5074407;28;20276;-76
2022/05/30 07:49:35;;;;;;;;;;;26.70;55.70;;;;;;5074292;28;19913;-78
2022/05/30 07:52:00;;;;;;;;;;;26.90;55.20;;;;;;5074184;28;19957;-76
2022/05/30 07:54:26;;;;;;;;;;;27.40;55.80;;;;;;5074218;28;20396;-76
2022/05/30 07:56:52;;;;;;;;;;;27.00;52.90;;;;;;5055603;28;19915;-77
2022/05/30 07:59:17;;;;;;;;;;;27.70;54.90;;;;;;5074139;28;20326;-78
2022/05/30 08:01:43;;;;;;;;;;;27.40;52.50;;;;;;5074151;28;19916;-77
2022/05/30 08:04:13;;;;;;;;;;;27.30;51.10;;;;;;5074521;28;19915;-76
2022/05/30 08:06:38;;;;;;;;;;;26.80;50.80;;;;;;5056157;28;19915;-76
2022/05/30 08:09:05;;;;;;;;;;;26.50;51.60;;;;;;5074181;28;20007;-76
2022/05/30 08:11:30;;;;;;;;;;;26.20;53.00;;;;;;5073861;28;20020;-78
2022/05/30 08:13:56;;;;;;;;;;;25.40;52.10;;;;;;5073942;28;20377;-77
2022/05/30 08:16:23;;;;;;;;;;;24.90;53.10;;;;;;5073893;28;19909;-77
2022/05/30 08:18:49;;;;;;;;;;;24.50;54.30;;;;;;5073840;28;19908;-78
2022/05/30 08:21:15;;;;;;;;;;;24.20;55.00;;;;;;5073806;28;20433;-76
2022/05/30 08:23:41;;;;;;;;;;;23.90;54.50;;;;;;5073829;28;20007;-76
2022/05/30 08:26:07;;;;;;;;;;;23.80;54.00;;;;;;5073797;28;19951;-78
2022/05/30 08:28:33;;;;;;;;;;;23.40;55.40;;;;;;5073773;28;19913;-75
2022/05/30 08:30:59;;;;;;;;;;;23.00;56.80;;;;;;5055737;28;19954;-76
2022/05/30 08:33:24;;;;;;;;;;;23.50;54.50;;;;;;5073593;28;19966;-76
2022/05/30 08:35:59;;;;;;;;;;;22.90;53.30;;;;;;5073432;28;20342;-76
2022/05/30 08:38:24;;;;;;;;;;;23.00;55.70;;;;;;5073783;28;19918;-77
2022/05/30 08:43:37;;;;;;;;;;;24.20;54.60;;;;;;5073368;28;20404;-77
2022/05/30 08:46:08;;;;;;;;;;;24.80;53.50;;;;;;5073584;28;20334;-75
2022/05/30 08:48:46;;;;;;;;;;;24.60;53.30;;;;;;5073607;28;19908;-76
2022/05/30 08:51:13;;;;;;;;;;;23.90;53.30;;;;;;5073490;28;19943;-75
2022/05/30 08:53:53;;;;;;;;;;;24.00;52.90;;;;;;5055418;28;19912;-76
2022/05/30 08:56:26;;;;;;;;;;;23.00;53.20;;;;;;5055295;28;19951;-75
2022/05/30 08:59:07;;;;;;;;;;;21.80;55.70;;;;;;5073573;28;19915;-76
2022/05/30 09:01:34;;;;;;;;;;;22.30;56.00;;;;;;5073447;28;19954;-77
2022/05/30 09:04:09;;;;;;;;;;;23.80;54.00;;;;;;5073415;28;19912;-77
2022/05/30 09:07:01;;;;;;;;;;;25.10;52.90;;;;;;5073733;28;19944;-77
2022/05/30 09:09:29;;;;;;;;;;;25.80;50.20;;;;;;5073276;28;19909;-78
2022/05/30 09:12:00;;;;;;;;;;;26.20;50.20;;;;;;5077233;28;20284;-77
2022/05/30 09:14:37;;;;;;;;;;;25.40;49.90;;;;;;5077449;28;19909;-77
2022/05/30 09:17:05;;;;;;;;;;;25.60;50.30;;;;;;5077471;28;19954;-77
2022/05/30 09:19:31;;;;;;;;;;;26.60;49.00;;;;;;5077236;28;19909;-78
2022/05/30 09:22:05;;;;;;;;;;;25.80;48.10;;;;;;5077199;28;19958;-77
2022/05/30 09:24:33;;;;;;;;;;;25.20;49.50;;;;;;5077432;28;19912;-76
2022/05/30 09:27:00;;;;;;;;;;;24.40;50.80;;;;;;5077054;28;20299;-76
2022/05/30 09:29:31;;;;;;;;;;;23.90;51.20;;;;;;5077073;28;19966;-77
2022/05/30 09:32:04;;;;;;;;;;;24.00;51.80;;;;;;5076892;28;19920;-77
2022/05/30 09:34:40;;;;;;;;;;;25.70;50.90;;;;;;5076850;28;20394;-77
2022/05/30 09:37:06;;;;;;;;;;;26.80;48.00;;;;;;5076876;28;19943;-76
2022/05/30 09:39:42;;;;;;;;;;;25.00;48.00;;;;;;5076946;28;20368;-76
2022/05/30 09:42:18;;;;;;;;;;;24.50;49.30;;;;;;5077012;28;19908;-77
2022/05/30 09:44:45;;;;;;;;;;;26.20;48.10;;;;;;5058507;28;20391;-77
2022/05/30 09:47:15;;;;;;;;;;;27.70;47.00;;;;;;5075856;28;20214;-76
2022/05/30 09:49:42;;;;;;;;;;;27.40;46.80;;;;;;5076632;28;20362;-77
2022/05/30 09:52:26;;;;;;;;;;;27.30;46.20;;;;;;5076557;28;19912;-76
2022/05/30 09:54:54;;;;;;;;;;;26.90;44.90;;;;;;5076539;28;19908;-75
2022/05/30 09:57:22;;;;;;;;;;;27.30;45.10;;;;;;5076451;28;20381;-78
2022/05/30 09:59:49;;;;;;;;;;;27.90;44.30;;;;;;5076840;28;19909;-76
2022/05/30 10:02:20;;;;;;;;;;;27.30;44.50;;;;;;5076411;28;19908;-76
2022/05/30 10:04:46;;;;;;;;;;;28.00;43.50;;;;;;5058362;28;19908;-76
2022/05/30 10:07:13;;;;;;;;;;;29.30;44.10;;;;;;5076413;28;19930;-78
2022/05/30 10:09:41;;;;;;;;;;;29.40;41.40;;;;;;5076324;28;19915;-77
2022/05/30 10:12:07;;;;;;;;;;;30.10;41.90;;;;;;5076571;28;20387;-78
2022/05/30 10:14:34;;;;;;;;;;;29.90;41.00;;;;;;5076374;28;19908;-77
2022/05/30 10:17:11;;;;;;;;;;;29.20;42.00;;;;;;5076120;28;20372;-77
2022/05/30 10:19:39;;;;;;;;;;;29.10;41.20;;;;;;5075372;28;19962;-76
2022/05/30 10:30:44;;;;;;;;;;;28.40;41.20;;;;;;5076157;28;20392;-75
2022/05/30 10:33:12;;;;;;;;;;;28.90;41.40;;;;;;5075856;28;19913;-77
2022/05/30 10:35:53;;;;;;;;;;;29.50;41.60;;;;;;5075663;28;19908;-76
2022/05/30 10:38:28;;;;;;;;;;;31.10;40.60;;;;;;5075750;28;20385;-76
2022/05/30 10:40:53;;;;;;;;;;;29.70;39.40;;;;;;5075972;28;19999;-78
2022/05/30 10:43:19;;;;;;;;;;;27.00;40.60;;;;;;5075758;28;19955;-76
2022/05/30 10:45:45;;;;;;;;;;;25.50;43.00;;;;;;5075615;28;19908;-78
2022/05/30 10:48:18;;;;;;;;;;;24.90;44.70;;;;;;5075841;28;19916;-76
2022/05/30 10:50:53;;;;;;;;;;;24.70;45.90;;;;;;5075754;28;19908;-76
2022/05/30 10:53:24;;;;;;;;;;;25.10;44.20;;;;;;5075561;28;19916;-78
2022/05/30 10:55:52;;;;;;;;;;;27.30;44.00;;;;;;5075403;28;19912;-77
2022/05/30 10:58:36;;;;;;;;;;;29.90;40.80;;;;;;5075567;28;20004;-76
2022/05/30 11:01:08;;;;;;;;;;;29.50;39.90;;;;;;5057330;28;20434;-76
2022/05/30 11:03:38;;;;;;;;;;;28.00;41.20;;;;;;5075387;28;20361;-77
2022/05/30 11:06:08;;;;;;;;;;;27.20;41.70;;;;;;5075237;28;19912;-77
2022/05/30 11:08:37;;;;;;;;;;;27.40;42.00;;;;;;5075184;28;19908;-77
2022/05/30 11:11:18;;;;;;;;;;;28.70;40.90;;;;;;5074845;28;19909;-77
2022/05/30 11:13:52;;;;;;;;;;;28.40;39.80;;;;;;5075038;28;19920;-77
2022/05/30 11:16:17;;;;;;;;;;;29.10;38.30;;;;;;5074836;28;20369;-79
2022/05/30 11:18:50;;;;;;;;;;;31.40;38.60;;;;;;5075093;28;19909;-78
2022/05/30 11:21:27;;;;;;;;;;;31.50;37.50;;;;;;5074870;28;19999;-76
2022/05/30 11:23:53;;;;;;;;;;;31.70;35.70;;;;;;5074847;28;19908;-77
2022/05/30 11:26:39;;;;;;;;;;;31.20;35.60;;;;;;5074792;28;20364;-77
2022/05/30 11:29:20;;;;;;;;;;;31.90;36.30;;;;;;5074778;28;19909;-77
2022/05/30 11:31:53;;;;;;;;;;;32.20;34.40;;;;;;5073630;28;20427;-76
2022/05/30 11:34:25;;;;;;;;;;;31.40;35.60;;;;;;5074679;28;19912;-77
2022/05/30 11:36:59;;;;;;;;;;;32.40;36.00;;;;;;5056500;28;20007;-77
2022/05/30 11:39:43;;;;;;;;;;;32.30;35.50;;;;;;5074662;28;20353;-76
2022/05/30 11:42:12;;;;;;;;;;;32.20;35.50;;;;;;5074460;28;20011;-78
2022/05/30 11:44:45;;;;;;;;;;;31.00;35.30;;;;;;5074418;28;19912;-78
2022/05/30 11:47:17;;;;;;;;;;;29.10;37.20;;;;;;5074576;28;19909;-76
2022/05/30 11:49:54;;;;;;;;;;;27.60;38.40;;;;;;5074497;28;19912;-76
2022/05/30 11:52:23;;;;;;;;;;;27.20;38.90;;;;;;5056230;28;19924;-77
2022/05/30 11:55:06;;;;;;;;;;;26.50;40.30;;;;;;5074400;28;19916;-76
2022/05/30 11:57:37;;;;;;;;;;;28.40;39.00;;;;;;5074489;28;20046;-76
2022/05/30 12:00:07;;;;;;;;;;;30.10;37.40;;;;;;5074180;28;19932;-77
2022/05/30 12:02:51;;;;;;;;;;;31.80;36.80;;;;;;5074123;28;19944;-75
2022/05/30 12:05:22;;;;;;;;;;;33.60;35.90;;;;;;5074107;28;20365;-76
2022/05/30 12:07:48;;;;;;;;;;;33.80;34.70;;;;;;5074144;28;19908;-78
2022/05/30 12:10:24;;;;;;;;;;;34.20;35.70;;;;;;5073980;28;19908;-78
2022/05/30 12:12:58;;;;;;;;;;;34.50;33.40;;;;;;5055951;28;19912;-76
2022/05/30 12:15:27;;;;;;;;;;;32.60;34.60;;;;;;5074223;28;20391;-76
2022/05/30 12:23:48;;;;;;;;;;;27.80;39.10;;;;;;5073582;28;19947;-78
2022/05/30 12:26:13;;;;;;;;;;;26.60;39.70;;;;;;5073837;28;19917;-77
2022/05/30 12:28:42;;;;;;;;;;;25.90;40.50;;;;;;5074143;28;20006;-76
2022/05/30 12:31:08;;;;;;;;;;;25.60;40.20;;;;;;5073892;28;20380;-77
2022/05/30 12:33:34;;;;;;;;;;;26.10;40.10;;;;;;5055689;28;20019;-77
2022/05/30 12:36:08;;;;;;;;;;;26.00;39.50;;;;;;5073550;28;19956;-77
2022/05/30 12:38:52;;;;;;;;;;;26.10;39.70;;;;;;5073878;28;19962;-76
2022/05/30 12:41:20;;;;;;;;;;;26.50;38.90;;;;;;5073866;28;19912;-76
2022/05/30 12:43:46;;;;;;;;;;;27.60;38.90;;;;;;5055260;28;20327;-75
2022/05/30 12:46:13;;;;;;;;;;;27.40;39.10;;;;;;5073569;28;19908;-76
2022/05/30 12:48:38;;;;;;;;;;;27.90;38.60;;;;;;5073990;28;20254;-78
2022/05/30 12:51:23;;;;;;;;;;;27.40;38.20;;;;;;5073719;28;19916;-76
2022/05/30 12:53:54;;;;;;;;;;;27.40;38.70;;;;;;5073621;28;20393;-77
2022/05/30 12:56:44;;;;;;;;;;;28.50;38.20;;;;;;5073717;28;19912;-77
2022/05/30 12:59:16;;;;;;;;;;;29.90;37.60;;;;;;5062754;28;20385;-78
2022/05/30 13:01:42;;;;;;;;;;;31.40;36.30;;;;;;5073620;28;19909;-75
2022/05/30 13:04:14;;;;;;;;;;;32.90;35.90;;;;;;5073448;28;19908;-77
2022/05/30 13:06:48;;;;;;;;;;;33.90;33.30;;;;;;5073640;28;20360;-77
2022/05/30 13:09:25;;;;;;;;;;;33.80;33.80;;;;;;5073376;28;19908;-76
2022/05/30 13:12:09;;;;;;;;;;;33.10;35.00;;;;;;5073231;28;19928;-75
2022/05/30 13:14:49;;;;;;;;;;;33.30;35.60;;;;;;5073352;28;19908;-76
2022/05/30 13:17:14;;;;;;;;;;;35.00;33.80;;;;;;5073444;28;19999;-78
2022/05/30 13:19:42;;;;;;;;;;;34.80;32.80;;;;;;5073268;28;19912;-76
2022/05/30 13:22:07;;;;;;;;;;;33.90;33.60;;;;;;5073268;28;20003;-78
2022/05/30 13:24:35;;;;;;;;;;;33.90;33.50;;;;;;5073444;28;19940;-76
2022/05/30 13:27:02;;;;;;;;;;;34.00;33.10;;;;;;5073192;28;19936;-78
2022/05/30 13:29:32;;;;;;;;;;;34.20;32.70;;;;;;5073333;28;20007;-77
2022/05/30 13:31:58;;;;;;;;;;;35.00;33.10;;;;;;5073090;28;20280;-76
2022/05/30 13:34:25;;;;;;;;;;;36.10;32.50;;;;;;5073113;28;19908;-77
2022/05/30 13:36:52;;;;;;;;;;;36.60;32.00;;;;;;5072874;28;19927;-76
2022/05/30 13:39:18;;;;;;;;;;;35.60;31.80;;;;;;5073128;28;19919;-76
2022/05/30 13:41:44;;;;;;;;;;;34.30;32.80;;;;;;5073079;28;19913;-76
2022/05/30 13:44:11;;;;;;;;;;;32.80;34.00;;;;;;5073069;28;19952;-75
2022/05/30 13:46:43;;;;;;;;;;;31.50;35.00;;;;;;5073447;28;19908;-79
2022/05/30 13:49:09;;;;;;;;;;;29.90;36.20;;;;;;5073359;28;20365;-77
2022/05/30 13:51:36;;;;;;;;;;;28.80;37.20;;;;;;5073019;28;20007;-77
2022/05/30 13:54:03;;;;;;;;;;;28.50;37.30;;;;;;5073043;28;19913;-76
2022/05/30 13:56:43;;;;;;;;;;;27.80;37.80;;;;;;5076544;28;20412;-75
2022/05/30 13:59:17;;;;;;;;;;;27.40;37.80;;;;;;5076929;28;19915;-76
2022/05/30 14:01:44;;;;;;;;;;;27.00;38.00;;;;;;5076524;28;20430;-75
2022/05/30 14:04:20;;;;;;;;;;;26.40;38.30;;;;;;5076428;28;20015;-76
2022/05/30 14:06:46;;;;;;;;;;;26.20;40.50;;;;;;5058119;28;19908;-76
2022/05/30 14:09:13;;;;;;;;;;;26.00;39.10;;;;;;5076340;28;19915;-78
2022/05/30 14:11:41;;;;;;;;;;;26.50;39.20;;;;;;5076176;28;19941;-75
2022/05/30 14:14:06;;;;;;;;;;;26.90;38.30;;;;;;5076326;28;20367;-76
2022/05/30 14:16:51;;;;;;;;;;;26.50;38.60;;;;;;5076252;28;19908;-75
2022/05/30 14:19:24;;;;;;;;;;;26.50;38.70;;;;;;5076091;28;19908;-76
2022/05/30 14:21:54;;;;;;;;;;;26.40;39.00;;;;;;5058096;28;19920;-77
2022/05/30 14:24:22;;;;;;;;;;;26.20;40.10;;;;;;5076260;28;19909;-75
2022/05/30 14:26:48;;;;;;;;;;;26.50;39.60;;;;;;5075984;28;19999;-76
2022/05/30 14:29:25;;;;;;;;;;;27.60;39.10;;;;;;5075918;28;19940;-78
2022/05/30 14:32:00;;;;;;;;;;;28.50;37.40;;;;;;5075922;28;19916;-76
2022/05/30 14:34:32;;;;;;;;;;;28.40;37.60;;;;;;5075868;28;19909;-76
2022/05/30 14:36:58;;;;;;;;;;;29.00;37.30;;;;;;5075660;28;19920;-77
2022/05/30 14:39:25;;;;;;;;;;;30.30;37.00;;;;;;5075757;28;19951;-77
2022/05/30 14:41:57;;;;;;;;;;;30.20;36.40;;;;;;5075685;28;19958;-77
2022/05/30 14:44:28;;;;;;;;;;;29.20;36.80;;;;;;5075735;28;20368;-75
2022/05/30 14:46:54;;;;;;;;;;;29.10;37.50;;;;;;5075635;28;19958;-75